Flight Track Log - Related Links

Times and Time Zones

All times are in EDT time to prevent confusion due to time zone crossing. See the RPA3196 flight status page for this flight to view local times or setup timezone preferences in your user account.

Time Position Orientation Groundspeed Altitude Reporting Facility
EDT Latitude Longitude Course Direction KTS MPH feet Rate Location/Type
Tue 10:14:05 AM 39.8667 -75.2667 37° Northeast 165 190 900  Level Philadelphia TRACON
Tue 10:14:29 AM 39.8500 -75.2833 218° Southwest 150 173 1,800 2,506 Climbing Philadelphia TRACON
Tue 10:16:00 AM 39.7988 -74.7770 105° East  Level FlightAware Approximate
Tue 10:16:43 AM 39.7322 -75.3139 191° South 215 247 7,500  Level New York Center
Tue 10:17:00 AM 39.8315 -74.6519 37° Northeast  Level FlightAware Approximate
Tue 10:17:42 AM 39.7403 -75.2092 84° East 207 238 10,900  Level New York Center
Tue 10:18:00 AM 39.9310 -74.5667 North  Level FlightAware Approximate
Tue 10:18:43 AM 39.7514 -75.0775 84° East 291 335 12,000  Level New York Center
Tue 10:19:00 AM 40.0281 -74.4719 37° Northeast  Level FlightAware Approximate
Tue 10:19:43 AM 39.7664 -74.9489 81° East 359 413 12,000  Level New York Center
Tue 10:20:41 AM 39.7814 -74.8172 82° East 366 421 12,000 1,109 Level New York Center
Tue 10:21:42 AM 39.8150 -74.6922 71° East 366 421 14,200 2,361 Climbing New York Center
Tue 10:22:43 AM 39.8967 -74.6156 36° Northeast 337 388 16,800 2,420 Climbing New York Center
Tue 10:23:41 AM 39.9764 -74.5361 37° Northeast 337 388 19,000 2,118 Climbing New York Center
Tue 10:24:42 AM 40.0603 -74.4567 36° Northeast 354 407 21,000 2,000 Climbing New York Center
Tue 10:25:41 AM 40.1378 -74.3764 38° Northeast 381 438 23,000 1,765 Climbing New York Center
Tue 10:26:41 AM 40.2278 -74.2889 37° Northeast 387 445 24,500 1,636 Climbing New York Center
Tue 10:27:42 AM 40.3181 -74.1981 37° Northeast 401 461 26,300 824 Climbing New York Center
Tue 10:29:43 AM 40.5061 -74.1214 17° North 396 456 27,000 232 Climbing Boston Center
Tue 10:30:43 AM 40.6294 -74.0836 13° North 380 437 27,000  Level Boston Center
Tue 10:31:43 AM 40.7467 -74.0508 12° North 380 437 27,000  Level Boston Center
Tue 10:32:43 AM 40.8511 -74.0233 11° North 380 437 27,000  Level Boston Center
Tue 10:33:43 AM 40.9581 -73.9903 13° North 380 437 27,000  Level Boston Center
Tue 10:34:43 AM 41.0647 -73.9569 13° North 375 432 27,000  Level Boston Center
Tue 10:35:43 AM 41.1694 -73.9236 13° North 375 432 27,000  Level Boston Center
Tue 10:36:55 AM 41.2614 -73.8953 13° North 375 432 27,000  Level Boston Center
Tue 10:37:55 AM 41.3892 -73.8567 13° North 375 432 27,000  Level Boston Center
Tue 10:38:55 AM 41.4956 -73.8342 North 375 432 27,000  Level Boston Center
Tue 10:39:55 AM 41.6000 -73.8114 North 375 432 27,000  Level Boston Center
Tue 10:40:55 AM 41.7089 -73.7861 10° North 380 437 27,000  Level Boston Center
Tue 10:41:55 AM 41.8133 -73.7686 North 380 437 27,000  Level Boston Center
Tue 10:42:55 AM 41.9219 -73.7431 10° North 380 437 27,000  Level Boston Center
Tue 10:43:55 AM 42.0283 -73.7203 North 386 444 27,000  Level Boston Center
Tue 10:44:55 AM 42.1392 -73.6889 12° North 391 450 27,000  Level Boston Center
Tue 10:45:55 AM 42.2269 -73.6708 North 391 450 27,000  Level Boston Center
Tue 10:46:55 AM 42.3544 -73.6453 North 391 450 27,000  Level Boston Center
Tue 10:47:55 AM 42.4608 -73.6219 North 391 450 27,000  Level Boston Center
Tue 10:48:55 AM 42.5717 -73.5989 North 391 450 27,000  Level Boston Center
Tue 10:49:55 AM 42.6822 -73.5756 North 391 450 27,000  Level Boston Center
Tue 10:50:55 AM 42.7889 -73.5464 11° North 391 450 27,000  Level Boston Center
Tue 10:51:55 AM 42.9081 -73.5200 North 391 450 27,000  Level Boston Center
Tue 10:52:55 AM 43.0167 -73.4936 10° North 391 450 27,000  Level Boston Center
Tue 10:53:55 AM 43.1272 -73.4700 North 391 450 27,000 -250 Level Boston Center
Tue 10:54:55 AM 43.2256 -73.4431 11° North 391 450 26,500 -1,250 Descending Boston Center
Tue 10:55:55 AM 43.3297 -73.4192 North 391 450 24,500 -1,250 Descending Boston Center
Tue 10:56:55 AM 43.4322 -73.3978 North 381 438 24,000 -250 Descending Boston Center
Tue 10:57:55 AM 43.5386 -73.3708 10° North 381 438 24,000 -1,050 Level Boston Center
Tue 10:58:55 AM 43.6408 -73.3494 North 376 433 21,900 -2,300 Descending Boston Center
Tue 10:59:55 AM 43.7369 -73.3281 North 366 421 19,400 -2,500 Descending Boston Center
Tue 11:00:55 AM 43.8331 -73.3036 10° North 354 407 16,900 -2,700 Descending Boston Center
Tue 11:01:55 AM 43.9269 -73.2819 North 349 402 14,000 -2,950 Descending Boston Center
Tue 11:02:55 AM 44.0189 -73.2600 10° North 344 396 11,000 -1,950 Descending Boston Center
Tue 11:03:55 AM 44.1022 -73.2408 North 323 372 10,100 -1,050 Descending Boston Center
Tue 11:04:55 AM 44.1669 -73.2272 North 276 318 8,900 -1,550 Descending Boston Center
Tue 11:05:55 AM 44.2214 -73.1961 22° Northeast 230 265 7,000 -1,850 Descending Boston Center
Tue 11:06:55 AM 44.2800 -73.1475 31° Northeast 208 239 5,200 -1,339 Descending Boston Center
Tue 11:07:56 AM 44.3261 -73.1075 32° Northeast 197 227 4,300 -793 Descending Boston Center
Tue 11:08:56 AM 44.3597 -73.0644 42° Northeast 171 197 3,600 -857 Descending Boston Center
Tue 11:09:55 AM 44.3931 -73.0472 20° North 144 166 2,600 -1,017 Descending Boston Center

Login

Don't have an account? Register now (free) for customized features, flight alerts, and more!